Time;durP1;ratioP1;P1;durP2;ratioP2;P2;SDS_P1;SDS_P2;PMS_P1;PMS_P2;Temp;Humidity;BMP_temperature;BMP_pressure;BME280_temperature;BME280_humidity;BME280_pressure;Samples;Min_cycle;Max_cycle;Signal;HPM_P1;HPM_P2
2022/12/15 00:40:06;;;;;;;;;;;;;;;-8.97;100.00;100724.66;4989355;28;20045;-79
2022/12/15 00:42:32;;;;;;;41.88;19.52;;;;;;;-8.98;100.00;100721.28;4974212;28;19917;-79
2022/12/15 00:44:57;;;;;;;41.50;20.70;;;;;;;-8.97;100.00;100723.00;4978382;28;20463;-79
2022/12/15 00:47:24;;;;;;;42.15;20.13;;;;;;;-9.03;100.00;100719.28;4978302;28;20536;-79
2022/12/15 01:20:19;;;;;;;45.63;22.75;;;;;;;-9.02;100.00;100734.53;4969286;28;20095;-79
2022/12/15 01:22:48;;;;;;;;;;;;;;;-8.98;100.00;100749.06;4992919;28;20038;-79
2022/12/15 01:25:15;;;;;;;39.33;21.20;;;;;;;-9.10;100.00;100733.25;4985571;28;19925;-79
2022/12/15 01:27:41;;;;;;;44.67;23.33;;;;;;;-8.97;100.00;100752.44;4974897;28;20026;-80
2022/12/15 01:30:08;;;;;;;45.83;22.40;;;;;;;-9.07;100.00;100740.13;4979713;28;20481;-79
2022/12/15 01:32:33;;;;;;;43.17;21.85;;;;;;;-8.94;100.00;100751.75;4980699;28;20496;-80
2022/12/15 01:34:59;;;;;;;48.50;23.58;;;;;;;-8.94;100.00;100747.56;4992000;28;20090;-79
2022/12/15 01:37:24;;;;;;;45.83;24.13;;;;;;;-8.94;100.00;100744.19;4973248;28;20499;-79
2022/12/15 01:42:33;;;;;;;;;;;;;;;-8.94;100.00;100734.06;4974372;28;20126;-80
2022/12/15 01:45:23;;;;;;;40.78;22.05;;;;;;;-8.93;100.00;100744.25;4989290;28;19953;-79
2022/12/15 01:47:59;;;;;;;44.60;23.33;;;;;;;-8.93;100.00;100745.91;4971661;28;20040;-80
2022/12/15 01:50:25;;;;;;;47.97;22.65;;;;;;;-8.99;100.00;100752.38;4988739;28;20026;-79
2022/12/15 01:52:52;;;;;;;45.90;23.13;;;;;;;-8.97;100.00;100760.03;4990974;28;20026;-79
2022/12/15 01:55:20;;;;;;;48.05;23.27;;;;;;;-8.99;100.00;100757.44;4987590;28;20037;-80
2022/12/15 01:57:48;;;;;;;49.13;23.75;;;;;;;-9.02;100.00;100752.22;4980828;28;20054;-79
2022/12/15 02:00:14;;;;;;;43.25;22.83;;;;;;;-8.96;100.00;100761.75;4992249;28;20129;-79
2022/12/15 02:02:42;;;;;;;46.20;22.98;;;;;;;-8.97;100.00;100777.72;4993024;28;20109;-80
2022/12/15 02:05:08;;;;;;;47.60;22.63;;;;;;;-8.99;100.00;100777.66;4992543;28;20049;-79
2022/12/15 02:07:33;;;;;;;43.88;21.80;;;;;;;-8.99;100.00;100780.19;4981746;28;20030;-79
2022/12/15 02:10:01;;;;;;;49.13;23.27;;;;;;;-8.96;100.00;100784.50;4974748;28;20058;-80
2022/12/15 02:12:40;;;;;;;46.38;22.92;;;;;;;-8.96;100.00;100785.41;4986454;28;20081;-79
2022/12/15 02:15:23;;;;;;;50.83;23.15;;;;;;;-8.92;100.00;100796.53;4976614;28;20054;-79
2022/12/15 02:17:54;;;;;;;50.20;23.83;;;;;;;-8.94;100.00;100803.16;4982355;28;20080;-79
2022/12/15 02:20:35;;;;;;;49.47;22.90;;;;;;;-8.96;100.00;100787.91;4996105;28;20040;-80
2022/12/15 02:23:34;;;;;;;49.78;23.55;;;;;;;-8.98;100.00;100786.97;4996465;28;20028;-79
2022/12/15 02:26:14;;;;;;;47.13;20.85;;;;;;;-9.02;100.00;100790.13;4995006;28;20027;-79
2022/12/15 02:28:55;;;;;;;51.28;23.75;;;;;;;-9.04;100.00;100793.34;4974872;28;20031;-79
2022/12/15 02:31:48;;;;;;;50.08;23.35;;;;;;;-9.07;100.00;100793.16;4979553;28;20100;-79
2022/12/15 02:34:24;;;;;;;47.05;22.42;;;;;;;-9.09;100.00;100790.56;4995730;28;20026;-79
2022/12/15 02:36:54;;;;;;;48.25;23.13;;;;;;;-9.04;100.00;100801.78;4989923;28;20061;-79
2022/12/15 02:39:22;;;;;;;52.00;24.05;;;;;;;-9.07;100.00;100794.03;4988805;28;20507;-80
2022/12/15 02:41:50;;;;;;;50.42;21.75;;;;;;;-9.15;100.00;100791.91;4990695;28;20030;-80
2022/12/15 02:44:54;;;;;;;46.55;23.45;;;;;;;-9.10;100.00;100795.53;4987827;28;20405;-79
2022/12/15 02:47:44;;;;;;;44.88;22.33;;;;;;;-9.11;100.00;100796.31;4924165;29;20520;-80
2022/12/15 02:50:37;;;;;;;49.40;23.00;;;;;;;-9.11;100.00;100802.22;4987662;28;20121;-79
2022/12/15 02:53:15;;;;;;;45.60;22.35;;;;;;;-9.11;100.00;100803.91;4966504;28;20015;-80
2022/12/15 02:55:55;;;;;;;42.70;21.48;;;;;;;-9.12;100.00;100800.50;4987584;28;20026;-80
2022/12/15 02:58:37;;;;;;;48.42;23.05;;;;;;;-9.12;100.00;100805.56;4989824;28;20117;-79
2022/12/15 03:01:20;;;;;;;47.53;22.60;;;;;;;-9.24;100.00;100784.69;4970151;28;20061;-80
2022/12/15 03:03:47;;;;;;;42.35;21.63;;;;;;;-9.16;100.00;100802.75;4976069;28;20042;-79
2022/12/15 03:06:13;;;;;;;48.40;21.95;;;;;;;-9.18;100.00;100806.88;4975276;28;20133;-79
2022/12/15 03:08:39;;;;;;;45.55;21.80;;;;;;;-9.32;100.00;100784.25;4973720;28;20031;-80
2022/12/15 03:11:04;;;;;;;43.50;21.77;;;;;;;-9.18;100.00;100810.28;4975529;28;20027;-80
2022/12/15 03:13:29;;;;;;;41.55;22.25;;;;;;;-9.33;100.00;100779.97;4976575;28;20486;-79
2022/12/15 03:15:57;;;;;;;47.50;23.30;;;;;;;-9.11;100.00;100804.75;4974213;28;20073;-79
2022/12/15 03:18:22;;;;;;;48.92;23.45;;;;;;;-9.08;100.00;100809.13;4975351;28;20479;-80
2022/12/15 03:20:47;;;;;;;41.90;22.27;;;;;;;-9.13;100.00;100798.75;4975798;28;20039;-79
2022/12/15 03:23:12;;;;;;;45.95;22.70;;;;;;;-9.19;100.00;100800.94;4975335;28;20070;-79
2022/12/15 03:25:38;;;;;;;46.10;23.30;;;;;;;-9.13;100.00;100808.84;4974075;28;20070;-80
2022/12/15 03:28:03;;;;;;;48.17;23.58;;;;;;;-9.17;100.00;100798.50;4974938;28;20081;-79
2022/12/15 03:30:28;;;;;;;51.05;23.80;;;;;;;-9.05;100.00;100814.34;4974802;28;20035;-80
2022/12/15 03:32:54;;;;;;;48.65;23.23;;;;;;;-9.07;100.00;100818.44;4975714;28;20027;-79
2022/12/15 03:35:19;;;;;;;45.00;23.48;;;;;;;-9.07;100.00;100826.88;4975473;28;20501;-79
2022/12/15 03:37:44;;;;;;;46.38;23.33;;;;;;;-9.06;100.00;100817.63;4974571;28;20019;-79
2022/12/15 03:40:12;;;;;;;48.83;22.58;;;;;;;-9.08;100.00;100816.69;4975963;28;20082;-80
2022/12/15 03:42:49;;;;;;;43.97;23.25;;;;;;;-9.06;100.00;100817.63;4975739;28;20371;-79
2022/12/15 03:45:23;;;;;;;42.38;22.52;;;;;;;-9.09;100.00;100825.03;4975127;28;20101;-79
2022/12/15 03:47:49;;;;;;;44.47;22.40;;;;;;;-9.06;100.00;100830.25;4973470;28;20105;-79
2022/12/15 03:50:17;;;;;;;48.95;24.20;;;;;;;-9.09;100.00;100822.50;4975161;28;20031;-80
2022/12/15 03:52:42;;;;;;;43.40;22.77;;;;;;;-9.20;100.00;100804.25;4974558;28;20023;-80
2022/12/15 03:55:09;;;;;;;45.00;23.45;;;;;;;-9.14;100.00;100819.75;4975724;28;20038;-80
2022/12/15 03:57:34;;;;;;;43.53;23.40;;;;;;;-9.20;100.00;100812.69;4973613;28;20023;-80
2022/12/15 04:00:00;;;;;;;49.90;23.40;;;;;;;-9.10;100.00;100825.84;4975047;28;20054;-80
2022/12/15 04:02:25;;;;;;;46.55;23.50;;;;;;;-9.08;100.00;100830.19;4975518;28;20067;-79
2022/12/15 04:04:51;;;;;;;44.75;24.00;;;;;;;-9.22;100.00;100805.81;4974408;28;20105;-80
2022/12/15 04:07:16;;;;;;;50.95;22.85;;;;;;;-9.15;100.00;100804.53;4974703;28;20110;-79
2022/12/15 04:09:41;;;;;;;44.38;22.45;;;;;;;-9.17;100.00;100817.03;4974977;28;20033;-80
2022/12/15 04:12:09;;;;;;;46.55;23.20;;;;;;;-9.08;100.00;100820.09;4974078;28;20022;-80
2022/12/15 04:14:34;;;;;;;45.60;23.35;;;;;;;-9.07;100.00;100821.81;4975410;28;20081;-80
2022/12/15 04:16:59;;;;;;;45.45;23.42;;;;;;;-9.19;100.00;100798.41;4974709;28;20498;-80
2022/12/15 04:22:08;;;;;;;47.20;23.02;;;;;;;-9.17;100.00;100814.53;4975143;28;20100;-79
2022/12/15 05:32:56;;;;;;;46.33;23.45;;;;;;;-9.32;100.00;100849.00;4972881;28;20074;-80
2022/12/15 05:35:21;;;;;;;51.63;24.58;;;;;;;-9.29;100.00;100856.75;4974022;28;20027;-80
2022/12/15 05:37:46;;;;;;;51.95;25.00;;;;;;;-9.28;100.00;100861.03;4972060;28;20363;-80
2022/12/15 05:40:12;;;;;;;57.60;27.70;;;;;;;-9.29;100.00;100866.84;4973566;28;20034;-80
2022/12/15 05:42:37;;;;;;;58.88;27.58;;;;;;;-9.23;100.00;100874.78;4973582;28;20031;-80
2022/12/15 05:45:04;;;;;;;54.75;27.05;;;;;;;-9.22;100.00;100872.38;4972881;28;20078;-80
2022/12/15 05:47:29;;;;;;;59.90;28.05;;;;;;;-9.23;100.00;100864.69;4974065;28;20418;-80
2022/12/15 05:49:54;;;;;;;54.85;25.58;;;;;;;-9.24;100.00;100873.91;4971626;28;20035;-80
2022/12/15 05:52:20;;;;;;;53.25;27.30;;;;;;;-9.25;100.00;100874.72;4977280;28;20019;-79
2022/12/15 05:54:45;;;;;;;58.10;28.05;;;;;;;-9.22;100.00;100877.41;4976499;28;20093;-80
2022/12/15 05:57:10;;;;;;;61.55;27.88;;;;;;;-9.20;100.00;100872.44;4976739;28;20106;-80
2022/12/15 05:59:35;;;;;;;60.58;28.42;;;;;;;-9.20;100.00;100872.44;4976530;28;20521;-79
2022/12/15 06:02:01;;;;;;;58.00;27.50;;;;;;;-9.23;100.00;100868.06;4977114;28;20038;-80
2022/12/15 06:04:26;;;;;;;56.47;27.38;;;;;;;-9.09;100.00;100888.19;4977129;28;20023;-80
2022/12/15 06:06:51;;;;;;;58.80;28.02;;;;;;;-9.14;100.00;100874.44;4976641;28;20037;-80
2022/12/15 06:09:17;;;;;;;59.13;28.33;;;;;;;-9.06;100.00;100874.06;4986118;28;20030;-80
2022/12/15 06:11:42;;;;;;;56.83;27.58;;;;;;;-9.04;100.00;100864.06;4976629;28;20023;-80
2022/12/15 06:14:08;;;;;;;52.88;26.10;;;;;;;-8.96;100.00;100875.44;4977536;28;20466;-80
2022/12/15 06:16:34;;;;;;;50.13;26.50;;;;;;;-8.99;100.00;100880.34;4977341;28;20046;-80
2022/12/15 06:19:00;;;;;;;48.00;25.25;;;;;;;-9.05;100.00;100880.00;4976163;28;20101;-79
2022/12/15 06:21:32;;;;;;;52.38;26.10;;;;;;;-9.12;100.00;100878.81;4975849;28;20058;-80
2022/12/15 06:23:57;;;;;;;46.47;25.00;;;;;;;-9.14;100.00;100882.03;4976587;28;20517;-80
2022/12/15 06:26:28;;;;;;;54.35;25.65;;;;;;;-9.14;100.00;100880.34;4976679;28;20022;-80
2022/12/15 06:28:56;;;;;;;54.08;25.35;;;;;;;-9.14;100.00;100879.50;4975808;28;20022;-80
2022/12/15 06:31:24;;;;;;;60.47;26.92;;;;;;;-9.14;100.00;100876.97;4977085;28;20390;-80
2022/12/15 06:33:50;;;;;;;52.20;25.42;;;;;;;-9.16;100.00;100881.03;4976501;28;20027;-80
2022/12/15 06:36:17;;;;;;;48.47;26.98;;;;;;;-9.19;100.00;100891.84;4975901;28;20031;-80
2022/12/15 06:38:43;;;;;;;52.58;26.67;;;;;;;-9.32;100.00;100869.22;4974628;28;20046;-80
2022/12/15 06:41:10;;;;;;;56.63;25.35;;;;;;;-9.24;100.00;100899.16;4976518;28;20035;-80
2022/12/15 06:43:35;;;;;;;55.85;25.77;;;;;;;-9.26;100.00;100900.72;4976663;28;20019;-80
2022/12/15 06:46:02;;;;;;;47.53;25.02;;;;;;;-9.17;100.00;100904.56;4974690;28;20045;-80
2022/12/15 06:48:28;;;;;;;54.40;27.42;;;;;;;-9.11;100.00;100900.75;4975909;28;20031;-80
2022/12/15 06:50:53;;;;;;;62.22;27.33;;;;;;;-9.19;100.00;100886.78;4976351;28;20183;-80
2022/12/15 06:53:20;;;;;;;55.65;27.77;;;;;;;-9.10;100.00;100896.56;4975908;28;20125;-80
2022/12/15 06:55:46;;;;;;;50.83;26.15;;;;;;;-9.05;100.00;100898.56;4976152;28;20042;-80
2022/12/15 06:58:13;;;;;;;52.20;26.40;;;;;;;-9.05;100.00;100901.09;4976132;28;20035;-80
2022/12/15 07:00:40;;;;;;;49.10;25.33;;;;;;;-9.12;100.00;100888.91;4973390;28;20105;-80
2022/12/15 07:03:08;;;;;;;49.03;25.52;;;;;;;-9.12;100.00;100893.06;4976354;28;20030;-80
2022/12/15 07:05:34;;;;;;;60.20;25.85;;;;;;;-9.11;100.00;100902.41;4975701;28;20022;-80
2022/12/15 07:07:59;;;;;;;52.47;25.33;;;;;;;-9.12;100.00;100903.16;4972660;28;20027;-80
2022/12/15 07:10:24;;;;;;;54.08;25.80;;;;;;;-9.12;100.00;100908.22;4975219;28;20540;-80
2022/12/15 07:12:50;;;;;;;53.28;24.40;;;;;;;-9.09;100.00;100908.38;4975738;28;20022;-79
2022/12/15 07:15:15;;;;;;;55.72;26.63;;;;;;;-9.06;100.00;100914.47;4976145;28;20578;-80
2022/12/15 07:17:41;;;;;;;59.45;26.60;;;;;;;-8.94;100.00;100915.97;4974004;28;20038;-80
2022/12/15 07:20:06;;;;;;;53.40;25.98;;;;;;;-8.95;100.00;100905.00;4976183;28;20086;-79
2022/12/15 07:22:32;;;;;;;56.42;26.73;;;;;;;-8.85;100.00;100911.44;4975728;28;20034;-79
2022/12/15 07:24:58;;;;;;;59.58;27.63;;;;;;;-8.88;100.00;100911.25;4975940;28;20399;-80
2022/12/15 07:27:23;;;;;;;51.50;25.60;;;;;;;-9.02;100.00;100897.88;4975491;28;20034;-79
2022/12/15 07:29:49;;;;;;;54.10;25.77;;;;;;;-8.99;100.00;100910.66;4974580;28;20036;-80
2022/12/15 07:32:14;;;;;;;53.88;25.95;;;;;;;-8.94;100.00;100916.84;4974149;28;20533;-79
2022/12/15 07:34:40;;;;;;;54.47;27.60;;;;;;;-8.94;100.00;100911.78;4975808;28;20033;-80
2022/12/15 07:37:05;;;;;;;58.67;26.40;;;;;;;-8.89;100.00;100917.06;4973518;28;20517;-80
2022/12/15 07:39:31;;;;;;;58.63;27.95;;;;;;;-8.84;100.00;100921.59;4974811;28;20529;-80
2022/12/15 07:41:56;;;;;;;60.85;28.50;;;;;;;-8.82;100.00;100924.25;5119364;23;20378;-80
2022/12/15 07:44:21;;;;;;;55.47;26.15;;;;;;;-8.82;100.00;100932.69;5008972;28;20033;-79
2022/12/15 07:46:48;;;;;;;56.97;27.30;;;;;;;-8.79;100.00;100930.31;5013795;28;20080;-80
2022/12/15 07:49:17;;;;;;;59.72;28.45;;;;;;;-8.85;100.00;100919.00;5012621;28;20446;-80
2022/12/15 07:51:51;;;;;;;57.47;26.73;;;;;;;-8.74;100.00;100933.97;5013186;28;20045;-79
2022/12/15 07:54:17;;;;;;;62.75;29.33;;;;;;;-8.69;100.00;100928.31;5010655;28;20038;-78
2022/12/15 07:56:42;;;;;;;59.53;28.67;;;;;;;-8.65;100.00;100918.44;5008176;28;20025;-79
2022/12/15 07:59:07;;;;;;;62.90;29.13;;;;;;;-8.72;100.00;100911.31;5012730;28;20535;-79
2022/12/15 08:01:36;;;;;;;60.50;28.85;;;;;;;-8.60;100.00;100926.25;5010120;28;20038;-78
2022/12/15 08:04:02;;;;;;;64.22;29.95;;;;;;;-8.57;100.00;100937.41;5012485;28;20029;-78
2022/12/15 08:06:27;;;;;;;62.13;30.42;;;;;;;-8.53;100.00;100951.13;5013320;28;20030;-79
2022/12/15 08:08:52;;;;;;;57.17;30.50;;;;;;;-8.50;100.00;100943.72;5011006;28;20033;-78
2022/12/15 08:11:20;;;;;;;58.65;29.63;;;;;;;-8.50;100.00;100933.59;5013176;28;20022;-79
2022/12/15 08:13:46;;;;;;;61.45;30.35;;;;;;;-8.46;100.00;100945.59;5011596;28;20030;-79
2022/12/15 08:16:11;;;;;;;65.15;29.88;;;;;;;-8.44;100.00;100938.94;5013885;28;20781;-79
2022/12/15 08:18:38;;;;;;;57.95;29.95;;;;;;;-8.34;100.00;100938.66;5010760;28;20434;-79
2022/12/15 08:21:07;;;;;;;65.55;31.83;;;;;;;-8.30;100.00;100937.16;5012227;28;20397;-79
2022/12/15 08:23:33;;;;;;;66.55;31.67;;;;;;;-8.32;100.00;100939.59;5012381;28;20069;-79
2022/12/15 08:26:07;;;;;;;68.70;32.17;;;;;;;-8.32;100.00;100946.31;5011685;28;20045;-79
2022/12/15 08:28:33;;;;;;;;;;;;;;;-8.30;100.00;100945.63;5001540;28;20038;-75
2022/12/15 08:31:07;;;;;;;60.92;30.17;;;;;;;-8.25;100.00;100949.25;5008020;28;19928;-77
2022/12/15 08:33:33;;;;;;;64.47;30.58;;;;;;;-8.26;100.00;100939.06;5002175;28;20045;-77
2022/12/15 08:36:01;;;;;;;62.20;30.77;;;;;;;-8.23;100.00;100945.94;5005378;28;20026;-76
2022/12/15 08:38:28;;;;;;;59.97;30.70;;;;;;;-8.23;100.00;100941.75;5007999;28;20025;-77
2022/12/15 08:40:53;;;;;;;61.97;31.10;;;;;;;-8.20;100.00;100948.66;5012193;28;20041;-76
2022/12/15 08:43:18;;;;;;;65.53;32.58;;;;;;;-8.18;100.00;100944.50;5012651;28;20401;-77
2022/12/15 08:45:44;;;;;;;70.15;32.80;;;;;;;-8.11;100.00;100947.47;5011433;28;20477;-76
2022/12/15 08:48:09;;;;;;;73.55;34.58;;;;;;;-8.01;100.00;100947.16;5012619;28;20536;-77
2022/12/15 08:50:34;;;;;;;70.55;33.67;;;;;;;-8.02;100.00;100931.88;5013179;28;20022;-77
2022/12/15 08:52:59;;;;;;;74.13;35.22;;;;;;;-7.90;100.00;100952.78;5012070;28;20034;-76
2022/12/15 08:55:25;;;;;;;69.18;34.33;;;;;;;-7.86;100.00;100957.22;5013364;28;20053;-77
2022/12/15 08:57:52;;;;;;;68.35;34.25;;;;;;;-7.79;100.00;100966.00;5012875;28;20030;-77
2022/12/15 09:00:17;;;;;;;68.63;35.45;;;;;;;-7.72;100.00;100959.59;5012247;28;20477;-77
2022/12/15 09:02:46;;;;;;;71.95;35.55;;;;;;;-7.66;100.00;100967.50;5013144;28;20046;-77
2022/12/15 09:05:11;;;;;;;73.38;36.85;;;;;;;-7.64;100.00;100968.47;5013141;28;20037;-77
2022/12/15 09:07:37;;;;;;;70.78;34.30;;;;;;;-7.57;100.00;100975.56;5012830;28;20424;-76
2022/12/15 09:10:02;;;;;;;72.43;35.83;;;;;;;-7.48;100.00;100981.13;5012899;28;20033;-79
2022/12/15 09:12:28;;;;;;;75.03;35.45;;;;;;;-7.40;100.00;100984.03;5013135;28;20503;-77
2022/12/15 09:14:53;;;;;;;72.80;36.47;;;;;;;-7.41;100.00;100983.16;5012227;28;20066;-77
2022/12/15 09:17:18;;;;;;;78.20;37.45;;;;;;;-7.34;100.00;100982.69;5013087;28;20037;-77
2022/12/15 09:19:44;;;;;;;68.75;35.63;;;;;;;-7.27;100.00;100990.59;5008040;28;20073;-77
2022/12/15 09:22:09;;;;;;;71.10;36.15;;;;;;;-7.35;100.00;100975.88;5003050;28;20025;-77
2022/12/15 09:24:34;;;;;;;76.25;37.58;;;;;;;-7.25;100.00;100989.03;5010897;28;20024;-77
2022/12/15 09:27:00;;;;;;;70.68;37.17;;;;;;;-7.16;100.00;101005.56;5000966;28;20022;-76
2022/12/15 09:29:25;;;;;;;85.25;38.88;;;;;;;-7.10;100.00;101007.50;5012475;28;20130;-77
2022/12/15 09:31:51;;;;;;;76.80;38.40;;;;;;;-7.11;100.00;101000.69;5012274;28;20068;-77
2022/12/15 09:34:16;;;;;;;75.15;39.40;;;;;;;-7.09;100.00;101001.66;5006592;28;20041;-77
2022/12/15 09:36:41;;;;;;;79.70;38.50;;;;;;;-7.02;100.00;100998.63;5007222;28;20028;-76
2022/12/15 09:39:08;;;;;;;79.65;40.20;;;;;;;-6.98;100.00;101010.66;5012174;28;20029;-79
2022/12/15 09:41:34;;;;;;;87.32;40.90;;;;;;;-6.91;100.00;101010.16;5011087;28;20034;-76
2022/12/15 09:44:09;;;;;;;80.32;41.47;;;;;;;-6.85;100.00;101015.53;5008661;28;20045;-76
2022/12/15 09:47:11;;;;;;;82.30;40.97;;;;;;;-6.87;100.00;101022.22;5010711;28;20041;-76
2022/12/15 09:49:48;;;;;;;79.90;40.88;;;;;;;-6.81;100.00;101025.84;5012244;28;20030;-77
2022/12/15 09:52:18;;;;;;;82.90;40.85;;;;;;;-6.77;100.00;101027.72;5014345;28;20096;-76
2022/12/15 09:54:45;;;;;;;87.40;39.63;;;;;;;-6.76;100.00;101014.25;5014746;28;20033;-77
2022/12/15 09:57:15;;;;;;;90.00;42.33;;;;;;;-6.65;100.00;101030.84;5012242;28;20358;-77
2022/12/15 09:59:48;;;;;;;79.15;40.17;;;;;;;-6.61;100.00;101026.00;5012273;28;20552;-77
2022/12/15 10:02:17;;;;;;;;;;;;;;;-6.59;100.00;101028.63;5014801;28;20034;-77
2022/12/15 10:04:55;;;;;;;76.95;38.85;;;;;;;-6.58;100.00;101011.75;5013938;28;19920;-77
2022/12/15 10:07:33;;;;;;;83.25;40.80;;;;;;;-6.47;100.00;101011.47;5021305;28;20034;-77
2022/12/15 10:10:06;;;;;;;93.00;40.97;;;;;;;-6.33;100.00;101026.47;5010817;28;20032;-75
2022/12/15 10:12:36;;;;;;;91.40;42.17;;;;;;;-6.25;100.00;101027.69;5010420;28;20033;-77
2022/12/15 10:15:23;;;;;;;94.88;43.78;;;;;;;-6.12;100.00;101022.38;5011949;28;20460;-72
2022/12/15 10:18:12;;;;;;;85.45;42.75;;;;;;;-6.05;100.00;101010.84;5007998;28;20022;-75
2022/12/15 10:20:38;;;;;;;86.38;40.90;;;;;;;-5.93;100.00;101011.41;5010435;28;20029;-75
2022/12/15 10:23:12;;;;;;;84.07;43.97;;;;;;;-5.86;100.00;101017.63;5003687;28;20436;-75
2022/12/15 10:25:38;;;;;;;83.32;42.55;;;;;;;-5.82;100.00;101015.31;5005784;28;20022;-74
2022/12/15 10:28:44;;;;;;;82.65;43.80;;;;;;;-5.80;100.00;101012.81;5011686;28;20033;-75
2022/12/15 10:31:10;;;;;;;83.82;41.42;;;;;;;-5.74;100.00;101013.09;5011800;28;20057;-74
2022/12/15 10:33:40;;;;;;;78.88;40.42;;;;;;;-5.73;100.00;101012.28;5011626;28;20064;-74
2022/12/15 10:36:14;;;;;;;83.50;42.97;;;;;;;-5.61;100.00;101019.59;5012733;28;20052;-75
2022/12/15 10:38:44;;;;;;;80.95;41.80;;;;;;;-5.61;100.00;101014.53;5014463;28;20021;-74
2022/12/15 10:41:12;;;;;;;90.60;44.15;;;;;;;-5.54;100.00;101021.59;5015236;28;20585;-74
2022/12/15 10:43:41;;;;;;;83.20;42.58;;;;;;;-5.55;100.00;101015.66;5014480;28;20502;-74
2022/12/15 10:46:13;;;;;;;83.43;42.55;;;;;;;-5.42;100.00;101022.16;5013412;28;20508;-74
2022/12/15 10:48:44;;;;;;;81.10;41.50;;;;;;;-5.43;100.00;101013.66;5015606;28;20013;-74
2022/12/15 10:51:14;;;;;;;86.05;45.63;;;;;;;-5.29;100.00;101024.44;5015654;28;20115;-74
2022/12/15 10:53:39;;;;;;;87.70;43.58;;;;;;;-5.21;100.00;101024.75;5015007;28;20462;-75
2022/12/15 10:56:06;;;;;;;84.90;43.83;;;;;;;-5.17;100.00;101016.44;5015495;28;20083;-76
2022/12/15 10:58:45;;;;;;;85.25;43.10;;;;;;;-5.13;100.00;101020.88;5015512;28;20034;-74
2022/12/15 11:01:39;;;;;;;76.22;41.53;;;;;;;-5.04;100.00;101011.06;5014919;28;20030;-74
2022/12/15 11:04:26;;;;;;;78.50;42.80;;;;;;;-4.96;100.00;101009.72;4996086;28;20112;-74
2022/12/15 11:06:56;;;;;;;81.22;40.50;;;;;;;-4.90;100.00;101015.91;5014386;28;20037;-74
2022/12/15 11:09:41;;;;;;;78.32;41.78;;;;;;;-4.82;100.00;101025.56;5015189;28;20034;-75
2022/12/15 11:15:22;;;;;;;79.82;41.60;;;;;;;-4.69;100.00;101021.84;5002425;28;20072;-74
2022/12/15 11:17:59;;;;;;;85.55;43.65;;;;;;;-4.64;100.00;101016.94;5014441;28;20029;-74
2022/12/15 11:20:34;;;;;;;78.60;41.58;;;;;;;-4.63;100.00;101009.38;5010296;28;20057;-75
2022/12/15 11:23:25;;;;;;;79.82;40.80;;;;;;;-4.59;100.00;101006.16;5006246;28;20100;-75
2022/12/15 11:25:57;;;;;;;75.38;39.75;;;;;;;-4.52;100.00;101003.03;5007294;28;20022;-75
2022/12/15 11:28:35;;;;;;;73.15;39.25;;;;;;;-4.53;100.00;100996.22;5012767;28;20092;-75
2022/12/15 11:31:50;;;;;;;79.82;42.78;;;;;;;-4.45;100.00;100999.06;5014840;28;20030;-75
2022/12/15 11:34:38;;;;;;;79.22;41.10;;;;;;;-4.37;100.00;101009.56;4992317;28;20154;-74
2022/12/15 11:37:06;;;;;;;73.90;39.45;;;;;;;-4.33;100.00;100998.69;5004860;28;20057;-76
2022/12/15 11:39:40;;;;;;;77.15;41.40;;;;;;;-4.30;100.00;101003.91;5010268;28;20038;-75
2022/12/15 11:42:17;;;;;;;76.93;41.72;;;;;;;-4.26;100.00;101001.53;5002543;28;20046;-75
2022/12/15 11:45:01;;;;;;;73.80;39.80;;;;;;;-4.21;100.00;101006.81;5016544;28;20037;-75
2022/12/15 11:47:43;;;;;;;69.38;39.58;;;;;;;-4.14;100.00;101007.91;5021631;28;20372;-75
2022/12/15 11:50:21;;;;;;;77.05;40.45;;;;;;;-4.11;100.00;101002.94;5014047;28;20385;-75
2022/12/15 11:53:16;;;;;;;77.60;42.28;;;;;;;-4.05;100.00;101000.63;5014356;28;20018;-75
2022/12/15 11:55:47;;;;;;;81.78;43.15;;;;;;;-3.96;100.00;101000.09;4995698;28;20501;-75
2022/12/15 11:58:49;;;;;;;80.50;45.97;;;;;;;-3.88;100.00;100988.53;5014425;28;20497;-75
2022/12/15 12:01:32;;;;;;;83.95;47.08;;;;;;;-3.77;100.00;100997.41;5012433;28;20453;-75
2022/12/15 12:04:15;;;;;;;81.40;45.80;;;;;;;-3.75;100.00;100972.88;5013557;28;20025;-75
2022/12/15 12:06:55;;;;;;;82.73;46.63;;;;;;;-3.60;100.00;100986.19;5014207;28;20109;-75
2022/12/15 12:09:30;;;;;;;82.82;46.88;;;;;;;-3.57;100.00;100978.63;5013891;28;20026;-75
2022/12/15 12:12:15;;;;;;;83.50;46.10;;;;;;;-3.47;100.00;100984.06;5022736;28;20022;-75
2022/12/15 12:14:50;;;;;;;82.70;46.15;;;;;;;-3.40;100.00;100986.00;5014582;28;20424;-76
2022/12/15 12:17:40;;;;;;;80.10;44.35;;;;;;;-3.33;100.00;100977.78;5018229;28;20033;-75
2022/12/15 12:20:16;;;;;;;83.88;45.40;;;;;;;-3.23;100.00;100967.09;5017344;28;20488;-75
2022/12/15 12:23:01;;;;;;;88.70;46.15;;;;;;;-3.12;100.00;100964.88;5011790;28;20049;-75
2022/12/15 12:25:29;;;;;;;81.78;45.75;;;;;;;-2.90;100.00;100966.47;5013234;28;20025;-77
2022/12/15 12:28:02;;;;;;;80.20;46.63;;;;;;;-2.65;100.00;100961.34;5012470;28;20068;-75
2022/12/15 12:30:34;;;;;;;76.65;45.08;;;;;;;-2.37;100.00;100965.63;5013662;28;20018;-75
2022/12/15 12:33:27;;;;;;;73.55;46.22;;;;;;;-2.17;100.00;100956.00;5012798;28;20404;-75
2022/12/15 12:35:58;;;;;;;78.60;45.50;;;;;;;-1.87;100.00;100967.97;5004859;28;20033;-75
2022/12/15 12:38:29;;;;;;;76.35;45.50;;;;;;;-1.70;100.00;100961.66;5013390;28;20397;-77
2022/12/15 12:41:14;;;;;;;76.22;44.60;;;;;;;-1.43;100.00;100958.13;5013500;28;20030;-77
2022/12/15 12:43:45;;;;;;;69.47;44.00;;;;;;;-1.27;100.00;100961.97;5012967;28;20508;-76
2022/12/15 12:46:16;;;;;;;68.80;42.58;;;;;;;-1.10;100.00;100970.06;5012781;28;20041;-78
2022/12/15 12:48:57;;;;;;;64.65;41.15;;;;;;;-0.97;100.00;100967.00;5010210;28;20109;-77
2022/12/15 12:51:32;;;;;;;62.08;40.35;;;;;;;-0.87;100.00;100958.72;5013644;28;20109;-77
2022/12/15 12:53:58;;;;;;;62.15;39.33;;;;;;;-0.85;100.00;100956.19;5007793;28;20026;-77
2022/12/15 12:56:40;;;;;;;67.18;40.63;;;;;;;-0.86;100.00;100941.66;5006356;28;20030;-78
2022/12/15 12:59:28;;;;;;;62.15;38.83;;;;;;;-0.95;100.00;100939.72;5005345;28;20030;-77
2022/12/15 13:01:57;;;;;;;60.40;36.95;;;;;;;-1.06;100.00;100936.91;5009027;28;20104;-77
2022/12/15 13:04:28;;;;;;;58.45;37.20;;;;;;;-1.18;100.00;100939.16;5011873;28;20493;-76
2022/12/15 13:07:03;;;;;;;60.45;38.22;;;;;;;-1.42;100.00;100918.94;5011464;28;20036;-76
2022/12/15 13:09:36;;;;;;;63.53;39.28;;;;;;;-1.47;100.00;100923.06;5010601;28;20032;-77
2022/12/15 13:12:02;;;;;;;62.87;39.27;;;;;;;-1.55;100.00;100924.53;5009432;28;20037;-77
2022/12/15 13:14:40;;;;;;;58.88;39.08;;;;;;;-1.64;100.00;100930.25;5007635;28;20303;-77
2022/12/15 13:17:14;;;;;;;59.03;38.50;;;;;;;-1.76;100.00;100920.59;5012787;28;20070;-77
2022/12/15 13:19:57;;;;;;;;;;;;;;;-1.75;100.00;100921.44;5013237;28;20418;-77
2022/12/15 13:22:39;;;;;;;68.00;38.92;;;;;;;-1.81;100.00;100922.13;5012766;28;19936;-77
2022/12/15 13:25:25;;;;;;;67.53;39.38;;;;;;;-1.79;100.00;100915.38;4998876;28;20547;-77
2022/12/15 13:27:54;;;;;;;67.72;39.13;;;;;;;-1.74;100.00;100918.91;5011045;28;20026;-77
2022/12/15 13:30:20;;;;;;;62.47;40.13;;;;;;;-1.66;100.00;100916.59;5013249;28;20026;-77
2022/12/15 13:32:50;;;;;;;67.93;41.15;;;;;;;-1.62;100.00;100915.84;5011538;28;20026;-77
2022/12/15 13:35:24;;;;;;;69.82;39.72;;;;;;;-1.64;100.00;100907.25;5005841;28;20037;-77
2022/12/15 13:37:49;;;;;;;;;;;;;;;-1.62;100.00;100902.19;5013074;28;20034;-77
2022/12/15 13:40:33;;;;;;;64.22;37.85;;;;;;;-1.68;100.00;100913.97;5012302;28;19917;-77
2022/12/15 13:43:05;;;;;;;64.32;39.00;;;;;;;-1.73;100.00;100907.91;5011605;28;20046;-78
2022/12/15 13:45:36;;;;;;;64.85;39.88;;;;;;;-1.70;100.00;100909.63;5012918;28;20077;-77
2022/12/15 13:48:12;;;;;;;66.28;38.58;;;;;;;-1.74;100.00;100901.03;5011253;28;20033;-77